createdAt,value
2019-05-18T00:01:06.795Z,99.90
2019-05-18T00:03:37.135Z,99.90
2019-05-18T00:06:07.698Z,99.90
2019-05-18T00:08:48.579Z,99.90
2019-05-18T00:11:21.895Z,99.90
2019-05-18T00:13:52.428Z,99.90
2019-05-18T00:16:28.488Z,99.90
2019-05-18T00:19:08.306Z,99.90
2019-05-18T00:21:39.099Z,99.90
2019-05-18T00:24:09.799Z,99.90
2019-05-18T00:26:40.167Z,99.90
2019-05-18T00:29:11.015Z,99.90
2019-05-18T00:31:41.264Z,99.90
2019-05-18T00:34:12.949Z,99.90
2019-05-18T00:36:43.251Z,99.90
2019-05-18T00:39:13.568Z,99.90
2019-05-18T00:41:45.654Z,99.90
2019-05-18T00:44:16.175Z,99.90
2019-05-18T00:46:46.478Z,99.90
2019-05-18T00:49:16.774Z,99.90
2019-05-18T00:51:47.320Z,99.90
2019-05-18T00:54:20.609Z,99.90
2019-05-18T00:56:50.815Z,99.90
2019-05-18T00:59:21.829Z,99.90
2019-05-18T01:01:52.283Z,99.90
2019-05-18T01:04:24.418Z,99.90
2019-05-18T01:06:58.822Z,99.90
2019-05-18T01:09:29.860Z,99.90
2019-05-18T01:12:00.673Z,99.90
2019-05-18T01:14:31.348Z,99.90
2019-05-18T01:17:01.552Z,99.90
2019-05-18T01:19:31.899Z,99.90
2019-05-18T01:22:02.447Z,99.90
2019-05-18T01:24:33.079Z,99.90
2019-05-18T01:27:03.763Z,99.90
2019-05-18T01:29:35.123Z,99.90
2019-05-18T01:32:05.616Z,99.90
2019-05-18T01:34:36.473Z,99.90
2019-05-18T01:37:07.101Z,99.90
2019-05-18T01:39:37.237Z,99.90
2019-05-18T01:42:07.588Z,99.90
2019-05-18T01:44:38.073Z,99.90
2019-05-18T01:47:08.522Z,99.90
2019-05-18T01:49:38.871Z,99.90
2019-05-18T01:52:09.938Z,99.90
2019-05-18T01:54:40.169Z,99.90
2019-05-18T01:57:10.293Z,99.90
2019-05-18T01:59:41.737Z,99.90
2019-05-18T02:02:12.174Z,99.90
2019-05-18T02:04:42.864Z,99.90
2019-05-18T02:07:13.829Z,99.90
2019-05-18T02:09:44.177Z,99.90
2019-05-18T02:12:14.257Z,99.90
2019-05-18T02:14:44.565Z,99.90
2019-05-18T02:17:16.380Z,99.90
2019-05-18T02:19:47.129Z,99.90
2019-05-18T02:22:17.442Z,99.90
2019-05-18T02:24:48.017Z,99.90
2019-05-18T02:27:18.247Z,99.90
2019-05-18T02:29:48.968Z,99.90
2019-05-18T02:32:19.239Z,99.90
2019-05-18T02:34:49.882Z,99.90
2019-05-18T02:37:20.208Z,99.90
2019-05-18T02:39:52.703Z,99.90
2019-05-18T02:42:22.943Z,99.90
2019-05-18T02:44:57.226Z,99.90
2019-05-18T02:47:30.827Z,99.90
2019-05-18T02:50:04.905Z,99.90
2019-05-18T02:52:37.489Z,99.90
2019-05-18T02:55:08.197Z,99.90
2019-05-18T02:57:49.540Z,99.90
2019-05-18T03:00:20.484Z,99.90
2019-05-18T03:02:50.641Z,99.90
2019-05-18T03:05:20.885Z,99.90
2019-05-18T03:07:51.459Z,99.90
2019-05-18T03:10:22.290Z,99.90
2019-05-18T03:12:53.230Z,99.90
2019-05-18T03:15:24.384Z,99.90
2019-05-18T03:17:54.519Z,99.90
2019-05-18T03:20:25.129Z,99.90
2019-05-18T03:22:55.573Z,99.90
2019-05-18T03:25:25.950Z,99.90
2019-05-18T03:27:56.688Z,99.90
2019-05-18T03:30:27.249Z,99.90
2019-05-18T03:32:57.443Z,99.90
2019-05-18T03:35:30.991Z,99.90
2019-05-18T03:38:03.128Z,99.90
2019-05-18T03:40:33.702Z,99.90
2019-05-18T03:43:04.002Z,99.90
2019-05-18T03:45:34.535Z,99.90
2019-05-18T03:48:04.800Z,99.90
2019-05-18T03:50:36.684Z,99.90
2019-05-18T03:53:06.878Z,99.90
2019-05-18T03:55:37.063Z,99.90
2019-05-18T03:58:07.271Z,99.90
2019-05-18T04:00:38.114Z,99.90
2019-05-18T04:03:20.233Z,99.90
2019-05-18T04:05:40.259Z,99.90
2019-05-18T04:08:11.091Z,99.90
2019-05-18T04:10:41.453Z,99.90
2019-05-18T04:13:11.766Z,99.90
2019-05-18T04:15:41.804Z,99.90
2019-05-18T04:18:12.118Z,99.90
2019-05-18T04:20:43.455Z,99.90
2019-05-18T04:23:14.344Z,99.90
2019-05-18T04:25:44.828Z,99.90
2019-05-18T04:28:15.444Z,99.90
2019-05-18T04:30:45.892Z,99.90
2019-05-18T04:33:17.019Z,99.90
2019-05-18T04:35:47.354Z,99.90
2019-05-18T04:38:17.660Z,99.90
2019-05-18T04:40:53.687Z,99.90
2019-05-18T04:43:24.726Z,99.90
2019-05-18T04:45:55.754Z,99.90
2019-05-18T04:48:26.908Z,99.90
2019-05-18T04:50:59.177Z,99.90
2019-05-18T04:53:29.846Z,99.90
2019-05-18T04:56:03.430Z,99.90
2019-05-18T04:58:33.986Z,99.90
2019-05-18T05:01:04.528Z,99.90
2019-05-18T05:03:34.695Z,99.90
2019-05-18T05:06:05.434Z,99.90
2019-05-18T05:08:35.653Z,99.90
2019-05-18T05:11:12.750Z,99.90
2019-05-18T05:13:43.089Z,99.90
2019-05-18T05:16:25.906Z,99.90
2019-05-18T05:18:56.233Z,99.90
2019-05-18T05:21:26.515Z,99.90
2019-05-18T05:23:56.950Z,99.90
2019-05-18T05:26:27.535Z,99.90
2019-05-18T05:29:04.494Z,99.90
2019-05-18T05:31:35.229Z,99.90
2019-05-18T05:34:06.425Z,99.90
2019-05-18T05:36:37.313Z,99.90
2019-05-18T05:39:11.403Z,99.90
2019-05-18T05:41:41.792Z,99.90
2019-05-18T05:44:12.900Z,99.90
2019-05-18T05:46:43.128Z,99.90
2019-05-18T05:49:13.501Z,99.90
2019-05-18T05:51:44.470Z,99.90
2019-05-18T05:54:15.534Z,99.90
2019-05-18T05:56:48.959Z,99.90
2019-05-18T05:59:19.099Z,99.90
2019-05-18T06:01:51.344Z,99.90
2019-05-18T06:04:21.689Z,99.90
2019-05-18T06:07:00.228Z,99.90
2019-05-18T06:09:30.528Z,99.90
2019-05-18T06:12:00.590Z,99.90
2019-05-18T06:14:31.254Z,99.90
2019-05-18T06:17:01.714Z,99.90
2019-05-18T06:19:31.969Z,99.90
2019-05-18T06:22:02.326Z,99.90
2019-05-18T06:24:33.401Z,99.90
2019-05-18T06:27:03.540Z,99.90
2019-05-18T06:29:34.561Z,99.90
2019-05-18T06:32:05.966Z,99.90
2019-05-18T06:34:37.703Z,99.90
2019-05-18T06:37:08.704Z,99.90
2019-05-18T06:39:39.338Z,99.90
2019-05-18T06:42:13.175Z,99.90
2019-05-18T06:44:43.389Z,99.90
2019-05-18T06:47:14.029Z,99.90
2019-05-18T06:49:47.620Z,99.90
2019-05-18T06:52:19.035Z,99.90
2019-05-18T06:54:49.999Z,99.90
2019-05-18T06:57:36.113Z,99.90
2019-05-18T07:00:07.060Z,99.90
2019-05-18T07:02:37.441Z,99.90
2019-05-18T07:05:09.725Z,99.90
2019-05-18T07:07:40.147Z,99.90
2019-05-18T07:10:10.347Z,99.90
2019-05-18T07:12:41.090Z,99.90
2019-05-18T07:15:11.920Z,99.90
2019-05-18T07:17:42.939Z,99.90
2019-05-18T07:20:13.496Z,99.90
2019-05-18T07:22:43.753Z,99.90
2019-05-18T07:25:14.371Z,99.90
2019-05-18T07:27:44.920Z,99.90
2019-05-18T07:30:19.172Z,99.90
2019-05-18T07:32:49.711Z,99.90
2019-05-18T07:35:20.135Z,99.90
2019-05-18T07:37:51.572Z,99.90
2019-05-18T07:40:22.298Z,99.90
2019-05-18T07:42:52.621Z,99.90
2019-05-18T07:45:22.966Z,99.90
2019-05-18T07:47:53.679Z,99.90
2019-05-18T07:50:24.218Z,99.90
2019-05-18T07:52:54.959Z,99.90
2019-05-18T07:55:28.616Z,99.90
2019-05-18T07:57:59.264Z,99.90
2019-05-18T08:00:29.724Z,99.90
2019-05-18T08:03:08.596Z,99.90
2019-05-18T08:05:42.118Z,99.90
2019-05-18T08:08:16.010Z,99.90
2019-05-18T08:10:46.971Z,99.90
2019-05-18T08:13:17.528Z,99.90
2019-05-18T08:15:54.765Z,99.90
2019-05-18T08:18:25.346Z,99.90
2019-05-18T08:20:56.110Z,99.90
2019-05-18T08:23:30.527Z,99.90
2019-05-18T08:26:01.065Z,99.90
2019-05-18T08:28:38.570Z,99.90
2019-05-18T08:31:10.414Z,99.90
2019-05-18T08:33:41.577Z,99.90
2019-05-18T08:36:12.149Z,99.90
2019-05-18T08:38:42.984Z,99.90
2019-05-18T08:41:14.432Z,99.90
2019-05-18T08:43:49.795Z,99.90
2019-05-18T08:46:20.580Z,99.90
2019-05-18T08:48:51.487Z,99.90
2019-05-18T08:51:22.017Z,99.90
2019-05-18T08:53:53.880Z,99.90
2019-05-18T08:56:30.922Z,99.90
2019-05-18T08:59:01.525Z,99.90
2019-05-18T09:01:36.994Z,99.90
2019-05-18T09:04:10.904Z,99.90
2019-05-18T09:06:42.795Z,99.90
2019-05-18T09:09:13.383Z,99.90
2019-05-18T09:11:45.397Z,99.90
2019-05-18T09:14:15.875Z,99.90
2019-05-18T09:16:50.626Z,99.90
2019-05-18T09:19:21.497Z,99.90
2019-05-18T09:21:54.398Z,99.90
2019-05-18T09:24:26.398Z,99.90
2019-05-18T09:27:09.312Z,99.90
2019-05-18T09:29:40.690Z,99.90
2019-05-18T09:32:19.173Z,99.90
2019-05-18T09:34:58.079Z,99.90
2019-05-18T09:37:34.928Z,99.90
2019-05-18T09:40:06.343Z,99.90
2019-05-18T09:42:40.699Z,99.90
2019-05-18T09:45:11.515Z,99.90
2019-05-18T09:47:46.822Z,99.90
2019-05-18T09:50:20.232Z,99.90
2019-05-18T09:52:50.054Z,99.90
2019-05-18T09:55:21.296Z,99.90
2019-05-18T09:57:54.034Z,99.90
2019-05-18T10:00:28.198Z,99.90
2019-05-18T10:03:00.529Z,99.90
2019-05-18T10:05:31.627Z,99.90
2019-05-18T10:08:02.542Z,99.90
2019-05-18T10:10:35.188Z,99.90
2019-05-18T10:13:08.220Z,99.90
2019-05-18T10:15:39.418Z,99.90
2019-05-18T10:18:09.944Z,99.90
2019-05-18T10:20:46.720Z,99.90
2019-05-18T10:23:16.903Z,99.90
2019-05-18T10:25:50.272Z,99.90
2019-05-18T10:28:23.462Z,99.90
2019-05-18T10:30:54.031Z,99.90
2019-05-18T10:33:27.677Z,99.90
2019-05-18T10:36:02.067Z,99.90
2019-05-18T10:38:33.485Z,99.90
2019-05-18T10:41:04.595Z,99.90
2019-05-18T10:43:38.015Z,99.90
2019-05-18T10:46:26.845Z,99.90
2019-05-18T10:49:03.923Z,99.90
2019-05-18T10:51:35.183Z,99.90
2019-05-18T10:54:10.993Z,99.90
2019-05-18T10:56:43.359Z,99.90
2019-05-18T10:59:14.475Z,99.90
2019-05-18T11:01:45.430Z,99.90
2019-05-18T11:04:19.022Z,99.90
2019-05-18T11:06:51.835Z,99.90
2019-05-18T11:09:25.992Z,99.90
2019-05-18T11:12:02.076Z,99.90
2019-05-18T11:14:32.953Z,99.90
2019-05-18T11:17:04.241Z,99.90
2019-05-18T11:19:34.562Z,99.90
2019-05-18T11:22:10.229Z,99.90
2019-05-18T11:24:40.566Z,99.90
2019-05-18T11:27:11.059Z,99.90
2019-05-18T11:29:46.314Z,99.90
2019-05-18T11:32:16.736Z,99.90
2019-05-18T11:34:50.941Z,99.70
2019-05-18T11:37:24.696Z,99.90
2019-05-18T11:39:56.721Z,99.90
2019-05-18T11:42:27.197Z,99.90
2019-05-18T11:44:58.088Z,99.90
2019-05-18T11:47:31.967Z,99.80
2019-05-18T11:50:02.652Z,99.90
2019-05-18T11:52:33.748Z,99.90
2019-05-18T11:55:05.344Z,99.90
2019-05-18T11:57:36.007Z,98.90
2019-05-18T12:00:10.046Z,99.00
2019-05-18T12:02:46.494Z,98.30
2019-05-18T12:05:20.378Z,97.60
2019-05-18T12:07:52.324Z,97.10
2019-05-18T12:10:26.024Z,95.30
2019-05-18T12:12:56.355Z,94.10
2019-05-18T12:15:27.130Z,92.90
2019-05-18T12:18:01.279Z,91.60
2019-05-18T12:20:35.088Z,92.30
2019-05-18T12:23:08.157Z,88.90
2019-05-18T12:25:38.325Z,88.40
2019-05-18T12:28:11.157Z,91.10
2019-05-18T12:30:41.973Z,90.00
2019-05-18T12:33:48.485Z,87.70
2019-05-18T12:36:21.851Z,84.70
2019-05-18T12:38:55.589Z,85.60
2019-05-18T12:41:35.378Z,88.90
2019-05-18T12:44:07.491Z,90.30
2019-05-18T12:46:38.129Z,90.30
2019-05-18T12:49:08.322Z,90.20
2019-05-18T12:51:44.670Z,90.20
2019-05-18T12:54:28.778Z,90.70
2019-05-18T12:56:52.421Z,89.60
2019-05-18T12:59:22.914Z,89.00
2019-05-18T13:01:53.556Z,87.90
2019-05-18T13:04:33.471Z,89.50
2019-05-18T13:07:04.013Z,86.70
2019-05-18T13:09:37.440Z,86.10
2019-05-18T13:12:11.575Z,87.20
2019-05-18T13:14:41.034Z,86.30
2019-05-18T13:17:13.027Z,84.30
2019-05-18T13:19:48.743Z,83.00
2019-05-18T13:22:18.966Z,81.10
2019-05-18T13:24:53.477Z,83.10
2019-05-18T13:27:38.350Z,81.90
2019-05-18T13:30:00.863Z,80.60
2019-05-18T13:32:36.489Z,80.80
2019-05-18T13:35:16.353Z,83.00
2019-05-18T13:37:48.498Z,80.80
2019-05-18T13:40:21.783Z,79.50
2019-05-18T13:43:05.446Z,81.40
2019-05-18T13:45:36.857Z,79.60
2019-05-18T13:48:11.515Z,80.40
2019-05-18T13:50:44.785Z,81.30
2019-05-18T13:53:18.891Z,76.20
2019-05-18T13:55:50.231Z,77.90
2019-05-18T13:58:21.266Z,77.50
2019-05-18T14:00:52.736Z,78.00
2019-05-18T14:03:26.115Z,77.00
2019-05-18T14:05:56.683Z,76.20
2019-05-18T14:08:30.958Z,76.80
2019-05-18T14:11:09.319Z,73.70
2019-05-18T14:13:39.751Z,71.10
2019-05-18T14:16:14.516Z,72.10
2019-05-18T14:18:46.527Z,73.80
2019-05-18T14:21:19.087Z,73.70
2019-05-18T14:23:50.180Z,73.10
2019-05-18T14:26:21.560Z,77.50
2019-05-18T14:28:56.980Z,75.70
2019-05-18T14:31:29.434Z,75.70
2019-05-18T14:34:00.674Z,78.10
2019-05-18T14:36:31.467Z,74.00
2019-05-18T14:39:03.371Z,73.80
2019-05-18T14:41:36.372Z,74.60
2019-05-18T14:44:17.768Z,75.40
2019-05-18T14:46:52.841Z,75.00
2019-05-18T14:49:26.198Z,75.80
2019-05-18T14:51:58.446Z,75.30
2019-05-18T14:54:37.887Z,74.30
2019-05-18T14:57:19.696Z,74.60
2019-05-18T15:00:11.570Z,74.90
2019-05-18T15:02:52.046Z,74.00
2019-05-18T15:05:28.144Z,75.50
2019-05-18T15:07:59.750Z,75.70
2019-05-18T15:10:31.976Z,76.30
2019-05-18T15:13:14.683Z,77.40
2019-05-18T15:15:53.406Z,76.90
2019-05-18T15:18:24.555Z,75.80
2019-05-18T15:20:59.785Z,76.20
2019-05-18T15:23:33.725Z,76.10
2019-05-18T15:26:12.259Z,78.00
2019-05-18T15:28:43.480Z,77.50
2019-05-18T15:31:14.854Z,79.00
2019-05-18T15:33:49.600Z,78.80
2019-05-18T15:36:20.703Z,77.90
2019-05-18T15:38:53.786Z,78.00
2019-05-18T15:41:35.018Z,78.20
2019-05-18T15:44:08.140Z,79.20
2019-05-18T15:46:48.849Z,79.90
2019-05-18T15:49:29.163Z,78.60
2019-05-18T15:52:02.511Z,79.60
2019-05-18T15:54:36.296Z,79.40
2019-05-18T15:57:11.508Z,80.90
2019-05-18T15:59:46.205Z,83.50
2019-05-18T16:02:17.977Z,84.80
2019-05-18T16:04:49.052Z,85.90
2019-05-18T16:07:21.953Z,87.20
2019-05-18T16:09:56.100Z,87.80
2019-05-18T16:12:38.645Z,89.30
2019-05-18T16:15:09.479Z,90.20
2019-05-18T16:17:43.968Z,91.00
2019-05-18T16:20:15.088Z,91.40
2019-05-18T16:22:48.497Z,91.70
2019-05-18T16:25:22.764Z,91.20
2019-05-18T16:28:04.542Z,90.80
2019-05-18T16:30:35.364Z,91.60
2019-05-18T16:33:11.532Z,92.60
2019-05-18T16:36:03.311Z,93.00
2019-05-18T16:38:39.128Z,94.00
2019-05-18T16:41:18.359Z,94.50
2019-05-18T16:43:53.199Z,95.00
2019-05-18T16:46:25.331Z,96.00
2019-05-18T16:48:56.195Z,99.90
2019-05-18T16:51:28.495Z,99.90
2019-05-18T16:54:00.708Z,99.90
2019-05-18T16:56:43.044Z,99.90
2019-05-18T16:59:35.447Z,99.90
2019-05-18T17:02:30.780Z,99.90
2019-05-18T17:04:52.075Z,99.90
2019-05-18T17:07:24.059Z,99.90
2019-05-18T17:10:15.807Z,99.90
2019-05-18T17:12:54.627Z,99.90
2019-05-18T17:18:29.457Z,99.90
2019-05-18T17:21:17.651Z,99.90
2019-05-18T17:23:48.675Z,99.90
2019-05-18T17:26:26.358Z,99.90
2019-05-18T17:29:02.365Z,99.90
2019-05-18T17:31:38.384Z,99.90
2019-05-18T17:34:13.229Z,99.90
2019-05-18T17:36:44.267Z,99.90
2019-05-18T17:39:34.390Z,99.90
2019-05-18T17:42:32.631Z,99.90
2019-05-18T17:45:05.661Z,99.90
2019-05-18T17:47:48.908Z,99.90
2019-05-18T17:50:19.992Z,99.90
2019-05-18T17:52:59.106Z,99.90
2019-05-18T17:55:45.170Z,99.90
2019-05-18T17:58:22.475Z,99.90
2019-05-18T18:01:05.805Z,99.90
2019-05-18T18:03:39.605Z,99.90
2019-05-18T18:06:32.376Z,99.90
2019-05-18T18:09:07.825Z,99.90
2019-05-18T18:11:49.839Z,99.90
2019-05-18T18:14:23.433Z,99.90
2019-05-18T18:17:26.715Z,99.90
2019-05-18T18:20:01.949Z,99.90
2019-05-18T18:22:42.962Z,99.90
2019-05-18T18:25:21.569Z,99.90
2019-05-18T18:27:57.133Z,99.90
2019-05-18T18:30:27.901Z,99.90
2019-05-18T18:33:02.568Z,99.90
2019-05-18T18:35:39.708Z,99.90
2019-05-18T18:38:12.408Z,99.90
2019-05-18T18:40:49.193Z,99.90
2019-05-18T18:43:21.412Z,99.90
2019-05-18T18:45:53.082Z,99.90
2019-05-18T18:48:29.115Z,99.90
2019-05-18T18:51:02.203Z,99.90
2019-05-18T18:53:35.555Z,99.90
2019-05-18T18:56:26.792Z,99.90
2019-05-18T18:59:05.309Z,99.90
2019-05-18T19:01:41.269Z,99.90
2019-05-18T19:04:14.183Z,99.90
2019-05-18T19:06:49.260Z,99.90
2019-05-18T19:09:22.872Z,99.90
2019-05-18T19:12:04.939Z,99.90
2019-05-18T19:14:36.553Z,99.90
2019-05-18T19:17:09.792Z,99.90
2019-05-18T19:19:43.418Z,99.90
2019-05-18T19:22:16.211Z,99.90
2019-05-18T19:24:47.963Z,99.90
2019-05-18T19:27:18.730Z,99.90
2019-05-18T19:29:49.751Z,99.90
2019-05-18T19:32:20.267Z,99.90
2019-05-18T19:34:50.663Z,99.90
2019-05-18T19:37:21.408Z,99.90
2019-05-18T19:40:00.581Z,99.90
2019-05-18T19:42:34.673Z,99.90
2019-05-18T19:45:05.204Z,99.90
2019-05-18T19:47:37.950Z,99.90
2019-05-18T19:50:13.848Z,99.90
2019-05-18T19:52:55.455Z,99.90
2019-05-18T19:55:26.268Z,99.90
2019-05-18T19:58:08.826Z,99.90
2019-05-18T20:00:42.840Z,99.90
2019-05-18T20:03:23.299Z,99.90
2019-05-18T20:05:56.937Z,99.90
2019-05-18T20:08:37.851Z,99.90
2019-05-18T20:11:13.008Z,99.90
2019-05-18T20:13:43.920Z,99.90
2019-05-18T20:16:16.070Z,99.90
2019-05-18T20:18:50.029Z,99.90
2019-05-18T20:21:27.359Z,99.90
2019-05-18T20:23:59.599Z,99.90
2019-05-18T20:26:30.011Z,99.90
2019-05-18T20:29:00.961Z,99.90
2019-05-18T20:31:32.887Z,99.90
2019-05-18T20:34:03.493Z,99.90
2019-05-18T20:36:40.567Z,99.90
2019-05-18T20:39:16.878Z,99.90
2019-05-18T20:41:51.105Z,99.90
2019-05-18T20:44:21.856Z,99.90
2019-05-18T20:46:54.419Z,99.90
2019-05-18T20:49:29.801Z,99.90
2019-05-18T20:52:01.565Z,99.90
2019-05-18T20:54:32.824Z,99.90
2019-05-18T20:57:06.848Z,99.90
2019-05-18T20:59:37.238Z,99.90
2019-05-18T21:02:11.395Z,99.90
2019-05-18T21:04:45.254Z,99.90
2019-05-18T21:07:23.266Z,99.90
2019-05-18T21:09:55.748Z,99.90
2019-05-18T21:12:37.525Z,99.90
2019-05-18T21:15:20.130Z,99.90
2019-05-18T21:17:52.196Z,99.90
2019-05-18T21:20:27.468Z,99.90
2019-05-18T21:23:00.786Z,99.90
2019-05-18T21:25:36.089Z,99.90
2019-05-18T21:28:13.815Z,99.90
2019-05-18T21:30:49.557Z,99.90
2019-05-18T21:33:24.387Z,99.90
2019-05-18T21:36:00.208Z,99.90
2019-05-18T21:38:31.325Z,99.90
2019-05-18T21:41:05.830Z,99.90
2019-05-18T21:43:49.478Z,99.90
2019-05-18T21:46:25.038Z,99.90
2019-05-18T21:48:56.762Z,99.90
2019-05-18T21:51:48.770Z,99.90
2019-05-18T21:54:30.597Z,99.90
2019-05-18T21:57:10.306Z,99.90
2019-05-18T21:59:56.378Z,99.90
2019-05-18T22:02:34.048Z,99.90
2019-05-18T22:05:07.815Z,99.90
2019-05-18T22:07:41.308Z,99.90
2019-05-18T22:10:25.648Z,99.90
2019-05-18T22:12:53.158Z,99.90
2019-05-18T22:15:27.782Z,99.90
2019-05-18T22:18:06.367Z,99.90
2019-05-18T22:20:43.227Z,99.90
2019-05-18T22:23:15.448Z,99.90
2019-05-18T22:25:48.197Z,99.90
2019-05-18T22:28:22.153Z,99.90
2019-05-18T22:30:54.476Z,99.90
2019-05-18T22:33:31.650Z,99.90
2019-05-18T22:36:13.708Z,99.90
2019-05-18T22:38:45.688Z,99.90
2019-05-18T22:41:16.326Z,99.90
2019-05-18T22:43:50.721Z,99.90
2019-05-18T22:46:21.972Z,99.90
2019-05-18T22:48:54.541Z,99.90
2019-05-18T22:51:27.587Z,99.90
2019-05-18T22:53:59.448Z,99.90
2019-05-18T22:56:33.133Z,99.90
2019-05-18T22:59:03.657Z,99.90
2019-05-18T23:01:35.075Z,99.90
2019-05-18T23:04:05.552Z,99.90
2019-05-18T23:06:50.430Z,99.90
2019-05-18T23:09:13.685Z,99.90
2019-05-18T23:11:44.420Z,99.90
2019-05-18T23:14:16.102Z,99.90
2019-05-18T23:16:46.972Z,99.90
2019-05-18T23:19:21.532Z,99.90
2019-05-18T23:21:56.172Z,99.90
2019-05-18T23:24:30.919Z,99.90
2019-05-18T23:27:01.584Z,99.90
2019-05-18T23:29:33.849Z,99.90
2019-05-18T23:32:05.115Z,99.90
2019-05-18T23:34:38.485Z,99.90
2019-05-18T23:37:09.424Z,99.90
2019-05-18T23:39:40.991Z,99.90
2019-05-18T23:42:14.836Z,99.90
2019-05-18T23:44:47.857Z,99.90
2019-05-18T23:47:18.786Z,99.90
2019-05-18T23:49:49.387Z,99.90
2019-05-18T23:52:20.306Z,99.90
2019-05-18T23:54:52.217Z,99.90
2019-05-18T23:57:23.255Z,99.90
2019-05-18T23:59:54.744Z,99.90
